Metairie, LA (70005)

4:16 PM CST on December 28, 2014 (GMT -0600)
Elmeer Ave. | Change Station
CLOSE
Current Station
Personal Weather Station
Location: Metairie, LA
Elevation: 1 ft
Nearby Weather Stations

Elev 1 ft 30.00 °N, 90.14 °W | Updated 10 seconds ago

Overcast
Overcast
59.5 °F
Feels Like 59.5 °F
N
1.0
Wind Variable Wind from WNW
Gusts 5.0 mph

Today
High -- | Low -- °F
--% Chance of Precip.
Yesterday
High -- | Low -- °F
Precip. -- in
6:55 AM 5:09 PM
First Quarter, 52% visible
Pressure 30.02 in
Visibility 4.0 miles
Clouds Few 300 ft
Mostly Cloudy 600 ft
Overcast 1200 ft
Dew Point 59 °F
Humidity 97%
Rainfall 0.00 in
Snow Depth Not available.
UV 0 out of 12
Pollen 1.60 out of 12
Air Quality Not available.
Flu Activity Not available.
METAR KNEW 282153Z AUTO 31008KT 4SM BR FEW003 BKN006 OVC012 16/14 A3004 RMK AO2 SLP166 T01610139 TSNO

More Conditions Fewer Conditions

Pressure 30.02 in
Visibility 4.0 miles
Clouds Few 300 ft
Mostly Cloudy 600 ft
Overcast 1200 ft
Dew Point 59 °F
Humidity 97%
Rainfall 0.00 in
Snow Depth Not available.
UV 0 out of 12
Pollen 1.60 out of 12
Air Quality Not available.
Flu Activity Not available.
METAR KNEW 282153Z AUTO 31008KT 4SM BR FEW003 BKN006 OVC012 16/14 A3004 RMK AO2 SLP166 T01610139 TSNO

More Conditions Fewer Conditions

10-Day Weather Forecast

Almanac

Astronomy

Dec. 28, 2014 Rise Set
Actual Time
Civil Twilight
Nautical Twilight
Astronomical Twilight
Moon
Length of Visible Light
Length of Day
Tomorrow will be .
, % of the Moon is Illuminated

Today's Extremes

State Highs State Lows

Community

WunderPhotos

Upload Photos

1,781,444 photos uploaded!

WunderBlogs® & News

Nearby

Air Quality

  Air Quality AQ Index Pollutant
Not available.

Snow Depth

Station Depth Elevation

Earthquake Activity

City Distance Mag. Time & Date
Minimum magnitude displayed is 2.5.

Coastal Water Temperatures

Place Temperature

Nearby Weather Stations